Time;durP1;ratioP1;P1;durP2;ratioP2;P2;SDS_P1;SDS_P2;PMS_P1;PMS_P2;Temp;Humidity;BMP_temperature;BMP_pressure;BME280_temperature;BME280_humidity;BME280_pressure;Samples;Min_cycle;Max_cycle;Signal;HPM_P1;HPM_P2
2022/01/04 00:01:30;;;;;;;;;1.00;1.00;;;;;22.61;44.13;100199.19;5053129;28;45437;-72
2022/01/04 00:03:56;;;;;;;;;1.00;1.00;;;;;22.63;43.66;100199.84;5040042;28;45509;-72
2022/01/04 00:06:21;;;;;;;;;1.50;1.00;;;;;22.60;43.35;100196.75;5051127;28;46847;-72
2022/01/04 00:08:47;;;;;;;;;1.00;1.00;;;;;22.63;43.82;100191.88;5054441;28;46500;-72
2022/01/04 00:11:18;;;;;;;;;1.00;1.00;;;;;22.62;43.80;100186.75;5052774;28;46196;-72
2022/01/04 00:13:44;;;;;;;;;1.00;1.00;;;;;22.62;43.88;100184.94;5053121;28;45471;-72
2022/01/04 00:16:10;;;;;;;;;2.00;1.00;;;;;22.57;43.56;100171.47;5038779;28;45450;-73
2022/01/04 00:18:40;;;;;;;;;1.00;1.00;;;;;22.62;43.18;100174.31;5052215;28;45391;-72
2022/01/04 00:21:06;;;;;;;;;1.00;0.67;;;;;22.52;43.63;100165.94;5053191;28;45883;-72
2022/01/04 00:23:31;;;;;;;;;2.00;1.00;;;;;22.62;43.26;100178.81;5050012;28;45596;-73
2022/01/04 00:25:58;;;;;;;;;0.50;0.50;;;;;22.63;43.71;100175.16;5051544;28;46021;-72
2022/01/04 00:28:23;;;;;;;;;1.00;1.00;;;;;22.49;43.71;100147.78;5038449;28;45421;-72
2022/01/04 00:30:49;;;;;;;;;2.25;1.00;;;;;22.62;43.60;100168.19;5046026;28;45331;-72
2022/01/04 00:33:16;;;;;;;;;1.00;1.00;;;;;22.61;43.78;100175.34;5050228;28;45409;-72
2022/01/04 00:35:43;;;;;;;;;0.00;0.00;;;;;22.57;43.56;100158.19;5049684;28;45398;-72
2022/01/04 00:38:08;;;;;;;;;2.75;0.75;;;;;22.62;43.25;100158.41;5050024;28;45451;-72
2022/01/04 00:40:34;;;;;;;;;0.00;0.00;;;;;22.60;43.62;100151.69;5058522;28;45452;-72
2022/01/04 00:43:00;;;;;;;;;1.00;1.00;;;;;22.61;43.41;100146.16;5052635;28;45324;-72
2022/01/04 00:45:27;;;;;;;;;1.33;1.33;;;;;22.61;43.14;100135.56;5055506;28;46005;-72
2022/01/04 00:50:18;;;;;;;;;0.75;0.75;;;;;22.61;43.68;100138.22;5057314;28;45335;-72
2022/01/04 00:52:43;;;;;;;;;0.25;0.00;;;;;22.60;43.72;100119.88;5054282;28;45299;-72
2022/01/04 00:55:09;;;;;;;;;2.00;0.00;;;;;22.57;43.20;100099.06;5053251;28;45370;-72
2022/01/04 00:57:34;;;;;;;;;1.00;1.00;;;;;22.59;43.28;100095.19;5055312;28;45285;-72
2022/01/04 01:00:00;;;;;;;;;3.00;1.00;;;;;22.59;43.48;100095.19;5049334;28;45519;-72
2022/01/04 01:02:25;;;;;;;;;2.67;1.00;;;;;22.58;43.59;100093.56;5047160;28;45222;-72
2022/01/04 01:04:50;;;;;;;;;1.50;0.50;;;;;22.58;43.54;100085.63;5040629;28;46043;-72
2022/01/04 01:07:16;;;;;;;;;1.00;1.00;;;;;22.56;43.63;100079.69;5052905;28;45467;-72
2022/01/04 01:09:45;;;;;;;;;0.00;0.00;;;;;22.55;43.19;100070.09;5051774;28;45372;-72
2022/01/04 01:12:11;;;;;;;;;1.00;1.00;;;;;22.53;43.38;100050.94;5038532;28;46164;-72
2022/01/04 01:14:36;;;;;;;;;0.75;0.75;;;;;22.56;43.10;100050.50;5044248;28;46966;-72
2022/01/04 01:17:02;;;;;;;;;1.00;1.00;;;;;22.50;43.25;100030.97;5049415;28;45403;-71
2022/01/04 01:19:28;;;;;;;;;1.00;1.00;;;;;22.55;43.50;100030.34;5052546;28;45487;-71
2022/01/04 01:21:53;;;;;;;;;0.67;0.67;;;;;22.55;43.20;100018.91;5051563;28;45516;-72
2022/01/04 01:24:18;;;;;;;;;1.25;1.25;;;;;22.55;43.48;100011.78;5049977;28;46620;-72
2022/01/04 01:26:45;;;;;;;;;0.00;0.00;;;;;22.54;43.07;100009.31;5049184;28;45458;-72
2022/01/04 01:29:11;;;;;;;;;1.00;1.00;;;;;22.54;43.03;100011.97;5049334;28;45453;-72
2022/01/04 01:31:36;;;;;;;;;0.00;0.00;;;;;22.53;43.44;100003.22;5037731;28;45489;-72
2022/01/04 01:34:01;;;;;;;;;1.00;1.00;;;;;22.51;43.54;100003.41;5052411;28;45339;-72
2022/01/04 01:36:27;;;;;;;;;0.75;0.75;;;;;22.32;43.44;99972.44;5052532;28;46240;-72
2022/01/04 01:38:52;;;;;;;;;1.50;0.25;;;;;22.51;43.51;100002.59;5043631;28;45406;-72
2022/01/04 01:41:17;;;;;;;;;0.00;0.00;;;;;22.51;43.39;100003.41;5040830;28;45462;-72
2022/01/04 01:43:43;;;;;;;;;0.00;0.00;;;;;22.52;43.02;99998.94;5050973;28;45366;-71
2022/01/04 01:46:08;;;;;;;;;0.00;0.00;;;;;22.52;43.35;99990.97;5045953;28;45414;-72
2022/01/04 01:48:34;;;;;;;;;0.33;0.33;;;;;22.52;43.02;99990.97;5051283;28;45421;-71
2022/01/04 01:50:59;;;;;;;;;1.50;0.00;;;;;22.47;43.36;99981.00;5041187;28;45465;-72
2022/01/04 01:53:25;;;;;;;;;1.00;1.00;;;;;22.44;42.97;99972.63;5040925;28;46738;-72
2022/01/04 01:55:50;;;;;;;;;1.00;1.00;;;;;22.51;42.94;99982.22;5037270;28;45542;-72
2022/01/04 01:58:16;;;;;;;;;1.25;1.25;;;;;22.52;43.38;99977.72;5051694;28;45401;-72
2022/01/04 02:00:41;;;;;;;;;0.00;0.00;;;;;22.52;42.82;99967.94;5052344;28;45536;-71
2022/01/04 02:03:07;;;;;;;;;1.00;1.00;;;;;22.52;43.16;99967.94;5051502;28;48470;-72
2022/01/04 02:05:33;;;;;;;;;1.00;0.00;;;;;22.51;43.43;99958.34;5050635;28;45319;-72
2022/01/04 02:08:01;;;;;;;;;0.00;0.00;;;;;22.54;42.76;99953.66;5048952;28;45278;-72
2022/01/04 02:10:27;;;;;;;;;0.00;0.00;;;;;22.53;43.23;99963.47;5033055;28;45540;-72
2022/01/04 02:12:54;;;;;;;;;1.25;1.25;;;;;22.51;43.29;99966.31;5045506;28;46284;-71
2022/01/04 02:15:22;;;;;;;;;1.00;1.00;;;;;22.54;42.57;99964.25;5040309;28;45449;-71
2022/01/04 02:17:48;;;;;;;;;1.67;0.33;;;;;22.54;43.26;99951.00;5042616;28;45380;-72
2022/01/04 02:20:15;;;;;;;;;0.00;0.00;;;;;22.53;42.83;99952.88;5039767;28;45548;-71
2022/01/04 02:22:41;;;;;;;;;2.00;2.00;;;;;22.54;43.05;99951.81;5050938;28;45501;-71
2022/01/04 02:25:08;;;;;;;;;1.00;1.00;;;;;22.54;42.80;99951.00;5036736;28;45425;-72
2022/01/04 02:27:36;;;;;;;;;0.75;0.75;;;;;22.54;43.42;99949.16;5039779;28;45424;-72
2022/01/04 02:30:05;;;;;;;;;2.00;1.00;;;;;22.54;43.06;99953.66;5045031;28;45559;-72
2022/01/04 02:32:31;;;;;;;;;0.75;0.00;;;;;22.52;42.82;99954.69;5047581;28;47310;-72
2022/01/04 02:34:56;;;;;;;;;0.00;0.00;;;;;22.52;42.70;99948.56;5037028;28;45439;-72
2022/01/04 02:37:24;;;;;;;;;0.00;0.00;;;;;22.52;42.68;99940.63;5050513;28;45705;-72
2022/01/04 02:39:50;;;;;;;;;0.00;0.00;;;;;22.51;43.14;99933.66;5049169;28;45201;-72
2022/01/04 02:42:15;;;;;;;;;0.25;0.25;;;;;22.52;42.92;99932.66;5038571;28;47485;-72
2022/01/04 02:44:41;;;;;;;;;1.00;1.00;;;;;22.50;43.38;99919.63;5043058;28;45594;-73
2022/01/04 02:47:07;;;;;;;;;0.00;0.00;;;;;22.51;42.55;99915.13;5045741;28;45483;-72
2022/01/04 02:49:32;;;;;;;;;0.33;0.33;;;;;22.49;43.08;99917.97;5042911;28;45364;-72
2022/01/04 02:51:57;;;;;;;;;0.33;0.33;;;;;22.42;42.66;99895.16;5037194;28;45490;-72
2022/01/04 02:54:23;;;;;;;;;0.00;0.00;;;;;22.42;42.44;99906.59;5040855;28;45501;-71
2022/01/04 02:56:48;;;;;;;;;0.00;0.00;;;;;22.49;42.65;99895.97;5044799;28;45442;-71
2022/01/04 02:59:14;;;;;;;;;1.00;1.00;;;;;22.45;42.68;99881.50;5047855;28;45501;-71
2022/01/04 03:01:39;;;;;;;;;0.00;0.00;;;;;22.46;43.23;99891.06;5050324;28;48655;-72
2022/01/04 03:04:05;;;;;;;;;0.00;0.00;;;;;22.49;42.61;99886.19;5043669;28;45481;-72
2022/01/04 03:06:30;;;;;;;;;1.00;1.00;;;;;22.49;42.71;99888.00;5052573;28;45360;-71
2022/01/04 03:08:55;;;;;;;;;0.00;0.00;;;;;22.45;43.01;99879.66;5047568;28;45525;-72
2022/01/04 03:11:21;;;;;;;;;0.00;0.00;;;;;22.48;43.00;99876.59;5049974;28;47106;-72
2022/01/04 03:13:46;;;;;;;;;0.00;0.00;;;;;22.49;43.03;99883.53;5051850;28;45473;-72
2022/01/04 03:16:11;;;;;;;;;1.00;0.00;;;;;22.41;43.21;99854.59;5039010;28;45481;-72
2022/01/04 03:18:49;;;;;;;;;0.00;0.00;;;;;22.49;43.07;99866.81;5024306;28;45362;-72
2022/01/04 03:21:14;;;;;;;;;0.00;0.00;;;;;22.48;42.73;99870.50;5046566;28;47186;-72
2022/01/04 03:23:40;;;;;;;;;1.00;1.00;;;;;22.48;42.56;99873.16;5052798;28;45379;-72
2022/01/04 03:26:05;;;;;;;;;0.00;0.00;;;;;22.48;42.79;99873.94;5052187;28;45503;-71
2022/01/04 03:28:30;;;;;;;;;1.00;0.00;;;;;22.40;42.86;99874.97;5039919;28;45845;-71
2022/01/04 03:30:56;;;;;;;;;0.00;0.00;;;;;22.48;42.53;99865.19;5055020;28;46252;-71
2022/01/04 03:33:21;;;;;;;;;0.75;0.75;;;;;22.48;42.69;99860.69;5053088;28;45513;-71
2022/01/04 03:35:47;;;;;;;;;0.00;0.00;;;;;22.49;43.13;99862.31;5054121;28;45584;-72
2022/01/04 03:38:12;;;;;;;;;0.75;0.75;;;;;22.50;43.08;99873.75;5055428;28;45541;-72
2022/01/04 03:40:37;;;;;;;;;2.00;0.00;;;;;22.50;43.11;99871.09;5050857;28;46975;-71
2022/01/04 03:43:02;;;;;;;;;1.00;1.00;;;;;22.49;42.63;99885.34;5053338;28;47455;-72
2022/01/04 03:45:28;;;;;;;;;0.75;0.75;;;;;22.50;43.00;99889.66;5042240;28;45577;-72
2022/01/04 03:47:53;;;;;;;;;0.00;0.00;;;;;22.50;42.46;99879.03;5041877;28;45401;-72
2022/01/04 03:50:18;;;;;;;;;0.00;0.00;;;;;22.49;42.46;99878.22;5050633;28;46107;-71
2022/01/04 03:52:44;;;;;;;;;0.00;0.00;;;;;22.50;42.49;99879.03;5051576;28;45390;-71
2022/01/04 03:55:09;;;;;;;;;0.00;0.00;;;;;22.51;42.43;99880.66;5054266;28;45364;-72
2022/01/04 03:57:36;;;;;;;;;0.00;0.00;;;;;22.50;42.38;99877.22;5038438;28;45347;-71
2022/01/04 04:00:06;;;;;;;;;0.00;0.00;;;;;22.50;42.64;99879.03;5048351;28;46310;-72
2022/01/04 04:02:31;;;;;;;;;1.00;1.00;;;;;22.50;43.10;99884.34;5046673;28;45485;-72
2022/01/04 04:04:57;;;;;;;;;0.00;0.00;;;;;22.49;42.45;99891.47;5045820;28;45512;-71
2022/01/04 04:07:22;;;;;;;;;0.00;0.00;;;;;22.37;42.99;99870.09;5020496;28;45461;-72
2022/01/04 04:09:47;;;;;;;;;0.33;0.33;;;;;22.50;42.44;99897.59;5041069;28;46131;-72
2022/01/04 04:12:14;;;;;;;;;0.00;0.00;;;;;22.49;42.94;99893.31;5042325;28;45492;-72
2022/01/04 04:14:39;;;;;;;;;0.00;0.00;;;;;22.48;43.00;99892.50;5046629;28;45464;-72
2022/01/04 04:17:05;;;;;;;;;0.00;0.00;;;;;22.38;42.40;99876.19;5049874;28;45414;-71
2022/01/04 04:19:30;;;;;;;;;0.00;0.00;;;;;22.48;42.70;99895.13;5053176;28;46194;-72
2022/01/04 04:21:55;;;;;;;;;0.00;0.00;;;;;22.48;42.96;99878.44;5060404;28;45371;-71
2022/01/04 04:24:21;;;;;;;;;0.00;0.00;;;;;22.49;43.02;99882.72;5051305;28;45414;-71
2022/01/04 04:26:46;;;;;;;;;0.00;0.00;;;;;22.48;42.93;99870.50;5044824;28;45530;-72
2022/01/04 04:29:11;;;;;;;;;0.00;0.00;;;;;22.47;42.34;99863.56;5038296;28;45274;-72
2022/01/04 04:31:37;;;;;;;;;0.00;0.00;;;;;22.48;42.93;99854.59;5039486;28;45428;-72
2022/01/04 04:34:02;;;;;;;;;0.00;0.00;;;;;22.48;42.56;99846.63;5038595;28;45211;-72
2022/01/04 04:36:27;;;;;;;;;1.00;1.00;;;;;22.46;42.44;99841.53;5052130;28;45200;-71
2022/01/04 04:38:53;;;;;;;;;0.00;0.00;;;;;22.46;42.80;99836.22;5050044;28;46299;-71
2022/01/04 04:41:18;;;;;;;;;0.00;0.00;;;;;22.46;42.36;99838.88;5056486;28;45378;-71
2022/01/04 04:43:45;;;;;;;;;0.00;0.00;;;;;22.46;42.38;99836.22;5051005;28;45334;-72
2022/01/04 04:46:11;;;;;;;;;0.00;0.00;;;;;22.46;42.41;99840.72;5053204;28;45429;-72
2022/01/04 04:48:36;;;;;;;;;0.00;0.00;;;;;22.37;42.68;99824.22;5051817;28;45401;-71
2022/01/04 04:51:01;;;;;;;;;0.00;0.00;;;;;22.36;42.49;99814.63;5043023;28;45380;-72
2022/01/04 04:53:27;;;;;;;;;0.00;0.00;;;;;22.46;42.49;99832.75;5038483;28;45373;-71
2022/01/04 04:55:52;;;;;;;;;0.00;0.00;;;;;22.46;42.44;99844.19;5041407;28;45580;-71
2022/01/04 04:58:17;;;;;;;;;0.67;0.00;;;;;22.46;42.41;99830.09;5039767;28;46881;-72
2022/01/04 05:00:43;;;;;;;;;0.00;0.00;;;;;22.46;42.65;99832.75;5034289;28;45480;-72
2022/01/04 05:03:08;;;;;;;;;0.00;0.00;;;;;22.46;42.40;99838.06;5049254;28;45364;-71
2022/01/04 05:05:33;;;;;;;;;0.00;0.00;;;;;22.46;42.82;99835.41;5048032;28;45485;-71
2022/01/04 05:07:59;;;;;;;;;1.00;0.75;;;;;22.42;42.29;99845.63;5051522;28;46232;-72
2022/01/04 05:10:24;;;;;;;;;0.00;0.00;;;;;22.44;42.73;99840.94;5044907;28;45396;-71
2022/01/04 05:12:49;;;;;;;;;0.00;0.00;;;;;22.46;42.40;99852.13;5039683;28;45792;-71
2022/01/04 05:15:15;;;;;;;;;1.00;1.00;;;;;22.45;42.79;99850.50;5040732;28;48127;-72
2022/01/04 05:17:40;;;;;;;;;0.00;0.00;;;;;22.45;42.43;99857.66;5037786;28;46154;-72
2022/01/04 05:20:06;;;;;;;;;0.00;0.00;;;;;22.47;42.66;99851.13;5039847;28;45472;-72
2022/01/04 05:22:32;;;;;;;;;0.00;0.00;;;;;22.47;42.27;99851.13;5052302;28;45526;-71
2022/01/04 05:24:57;;;;;;;;;0.00;0.00;;;;;22.47;42.69;99852.94;5054858;28;45256;-71
2022/01/04 05:27:22;;;;;;;;;0.00;0.00;;;;;22.48;42.36;99865.19;5050574;28;47007;-71
2022/01/04 05:29:48;;;;;;;;;1.00;1.00;;;;;22.34;42.93;99844.00;5044031;28;45521;-72
2022/01/04 05:32:13;;;;;;;;;0.00;0.00;;;;;22.48;42.40;99859.88;5040862;28;45256;-72
2022/01/04 05:34:39;;;;;;;;;0.00;0.00;;;;;22.48;42.32;99863.34;5037813;28;45402;-72
2022/01/04 05:37:05;;;;;;;;;0.00;0.00;;;;;22.48;42.32;99863.34;5037207;28;46504;-71
2022/01/04 05:39:30;;;;;;;;;0.00;0.00;;;;;22.48;42.70;99862.53;5053559;28;45492;-71
2022/01/04 05:41:56;;;;;;;;;0.00;0.00;;;;;22.48;42.40;99850.06;5045268;28;45582;-71
2022/01/04 05:44:21;;;;;;;;;1.00;1.00;;;;;22.47;42.58;99837.03;5022230;28;45467;-72
2022/01/04 05:46:46;;;;;;;;;0.00;0.00;;;;;22.38;42.26;99824.00;5019487;28;46921;-71
2022/01/04 05:49:12;;;;;;;;;1.00;1.00;;;;;22.47;42.27;99829.09;5052847;28;45372;-71
2022/01/04 05:51:37;;;;;;;;;0.75;0.75;;;;;22.48;42.17;99839.47;5063510;28;45303;-72
2022/01/04 05:54:03;;;;;;;;;0.50;0.50;;;;;22.47;42.64;99850.31;5052503;28;45461;-71
2022/01/04 05:56:28;;;;;;;;;0.00;0.00;;;;;22.46;42.79;99857.44;5048341;28;45275;-72
2022/01/04 05:58:53;;;;;;;;;0.33;0.00;;;;;22.47;42.73;99874.16;5050266;28;45414;-72
2022/01/04 06:01:19;;;;;;;;;0.00;0.00;;;;;22.46;42.72;99870.69;5049033;28;45311;-71
2022/01/04 06:03:46;;;;;;;;;0.75;0.75;;;;;22.47;42.74;99855.59;5051422;28;45620;-71
2022/01/04 06:06:12;;;;;;;;;0.00;0.00;;;;;22.47;42.17;99855.59;5040338;28;46078;-72
2022/01/04 06:08:38;;;;;;;;;0.00;0.00;;;;;22.46;42.19;99861.91;5039942;28;45383;-71
2022/01/04 06:11:03;;;;;;;;;0.75;0.75;;;;;22.47;42.38;99860.91;5038955;28;45809;-72
2022/01/04 06:16:13;;;;;;;;;0.00;0.00;;;;;22.43;42.27;99854.41;5052281;28;45422;-72
2022/01/04 06:18:41;;;;;;;;;0.00;0.00;;;;;22.42;42.52;99842.16;5050381;28;45362;-72
2022/01/04 06:21:07;;;;;;;;;1.00;1.00;;;;;22.42;42.83;99842.16;5053039;28;45425;-72
2022/01/04 06:23:32;;;;;;;;;0.00;0.00;;;;;22.38;42.50;99833.78;5052923;28;45405;-71
2022/01/04 06:25:58;;;;;;;;;1.00;1.00;;;;;22.10;42.55;99785.34;5047983;28;46424;-71
2022/01/04 06:28:23;;;;;;;;;0.25;0.25;;;;;22.34;42.66;99819.34;5036593;28;45415;-72
2022/01/04 06:30:52;;;;;;;;;0.00;0.00;;;;;22.45;42.34;99841.75;5035087;28;45516;-71
2022/01/04 06:33:21;;;;;;;;;0.00;0.00;;;;;22.33;42.26;99815.88;5039159;28;45271;-72
2022/01/04 06:35:50;;;;;;;;;0.00;0.00;;;;;22.44;42.43;99832.97;5044308;28;45673;-72
2022/01/04 06:38:16;;;;;;;;;0.25;0.00;;;;;22.46;42.08;99832.75;5048522;28;45393;-75
2022/01/04 06:40:41;;;;;;;;;0.00;0.00;;;;;22.42;42.74;99823.59;5049730;28;45471;-74
2022/01/04 06:43:07;;;;;;;;;0.25;0.25;;;;;22.43;42.31;99826.03;5050796;28;45456;-74
2022/01/04 06:45:33;;;;;;;;;0.00;0.00;;;;;22.48;42.07;99830.72;5040343;28;46055;-74
2022/01/04 06:47:58;;;;;;;;;0.00;0.00;;;;;22.33;42.79;99807.91;5045239;28;45570;-73
2022/01/04 06:50:24;;;;;;;;;0.75;0.75;;;;;22.48;42.65;99814.84;5043270;28;50216;-74
2022/01/04 06:52:50;;;;;;;;;0.00;0.00;;;;;22.41;42.32;99806.88;5024982;28;45611;-73
2022/01/04 06:55:16;;;;;;;;;0.00;0.00;;;;;22.48;42.67;99812.19;5037166;28;46421;-71
2022/01/04 06:57:42;;;;;;;;;0.00;0.00;;;;;22.35;42.13;99803.22;5052224;28;45393;-71
2022/01/04 07:00:09;;;;;;;;;0.75;0.00;;;;;22.48;42.41;99842.13;5053655;28;45470;-70
2022/01/04 07:02:35;;;;;;;;;1.75;0.00;;;;;22.47;42.58;99845.00;5052412;28;45445;-70
2022/01/04 07:05:00;;;;;;;;;2.00;0.00;;;;;22.48;42.48;99846.63;5054250;28;46207;-71
2022/01/04 07:07:25;;;;;;;;;1.00;0.00;;;;;22.42;42.82;99839.50;5053677;28;47620;-71
2022/01/04 07:09:51;;;;;;;;;0.00;0.00;;;;;22.50;42.54;99868.44;5055644;28;45413;-71
2022/01/04 07:12:16;;;;;;;;;0.00;0.00;;;;;22.50;43.04;99876.41;5055690;28;45504;-71
2022/01/04 07:14:41;;;;;;;;;0.00;0.00;;;;;22.52;42.46;99892.91;5049409;28;45310;-72
2022/01/04 07:17:07;;;;;;;;;0.25;0.25;;;;;22.49;42.88;99891.47;5041260;28;45858;-71
2022/01/04 07:19:32;;;;;;;;;0.00;0.00;;;;;22.53;42.51;99894.53;5053700;28;45406;-72
2022/01/04 07:21:57;;;;;;;;;0.00;0.00;;;;;22.52;42.88;99891.06;5054006;28;45386;-73
2022/01/04 07:24:23;;;;;;;;;2.50;1.00;;;;;22.52;42.59;99892.91;5050062;28;46108;-73
2022/01/04 07:26:48;;;;;;;;;0.75;0.75;;;;;22.36;42.77;99860.50;5046321;28;45337;-73
2022/01/04 07:29:13;;;;;;;;;1.25;0.75;;;;;22.52;42.71;99899.03;5039702;28;45374;-73
2022/01/04 07:31:39;;;;;;;;;0.00;0.00;;;;;22.54;42.57;99903.28;5040453;28;45435;-73
2022/01/04 07:34:04;;;;;;;;;1.25;0.50;;;;;22.51;42.34;99905.34;5052694;28;51475;-73
2022/01/04 07:36:31;;;;;;;;;1.00;0.00;;;;;22.54;42.63;99913.88;5043051;28;45657;-73
2022/01/04 07:38:57;;;;;;;;;1.00;0.00;;;;;22.46;42.94;99905.13;5030408;28;45513;-73
2022/01/04 07:41:22;;;;;;;;;2.00;0.00;;;;;22.42;42.38;99911.06;5050985;28;45517;-73
2022/01/04 07:43:48;;;;;;;;;1.00;1.00;;;;;22.53;42.42;99923.69;5053780;28;46224;-72
2022/01/04 07:46:13;;;;;;;;;0.00;0.00;;;;;22.50;42.72;99918.81;5038292;28;45360;-73
2022/01/04 07:48:38;;;;;;;;;0.00;0.00;;;;;22.45;42.38;99905.34;5059032;28;45338;-73
2022/01/04 07:51:04;;;;;;;;;0.00;0.00;;;;;22.52;42.51;99908.81;5056897;28;45412;-72
2022/01/04 07:53:30;;;;;;;;;1.00;0.75;;;;;22.51;42.54;99913.28;5061212;28;46050;-73
2022/01/04 07:55:56;;;;;;;;;0.00;0.00;;;;;22.51;42.63;99907.16;5054890;28;45473;-73
2022/01/04 07:58:22;;;;;;;;;0.33;0.33;;;;;22.48;42.61;99912.91;5054185;28;45299;-72
2022/01/04 08:00:48;;;;;;;;;0.00;0.00;;;;;22.50;42.75;99908.19;5057458;28;45994;-73
2022/01/04 08:03:13;;;;;;;;;1.00;1.00;;;;;22.50;42.98;99903.72;5049393;28;46059;-72
2022/01/04 08:05:39;;;;;;;;;0.00;0.00;;;;;22.41;42.98;99881.09;5051876;28;45323;-73
2022/01/04 08:08:05;;;;;;;;;0.25;0.00;;;;;22.49;42.94;99898.59;5032202;28;45343;-73
2022/01/04 08:10:30;;;;;;;;;0.00;0.00;;;;;22.38;42.61;99882.31;5054753;28;45401;-73
2022/01/04 08:12:55;;;;;;;;;0.00;0.00;;;;;22.49;42.72;99894.13;5045442;28;45631;-73
2022/01/04 08:15:21;;;;;;;;;0.33;0.33;;;;;22.49;42.94;99903.91;5041144;28;45481;-73
2022/01/04 08:17:47;;;;;;;;;0.00;0.00;;;;;22.49;42.79;99895.97;5043509;28;45528;-73
2022/01/04 08:20:13;;;;;;;;;0.25;0.25;;;;;22.40;42.37;99880.28;5050297;28;45495;-73
2022/01/04 08:22:38;;;;;;;;;0.00;0.00;;;;;22.38;42.67;99869.06;5050594;28;46820;-73
2022/01/04 08:25:06;;;;;;;;;1.00;1.00;;;;;22.45;42.45;99877.03;5037598;28;45422;-73
2022/01/04 08:27:32;;;;;;;;;1.00;0.75;;;;;22.47;42.44;99904.13;5043135;28;45277;-73
2022/01/04 08:29:58;;;;;;;;;0.00;0.00;;;;;22.47;42.93;99904.13;5041623;28;45464;-73
2022/01/04 08:32:23;;;;;;;;;0.00;0.00;;;;;22.47;42.57;99906.78;5044355;28;46255;-73
2022/01/04 08:34:49;;;;;;;;;1.00;1.00;;;;;22.47;42.62;99905.97;5064230;28;45775;-73
2022/01/04 08:37:15;;;;;;;;;1.00;1.00;;;;;22.48;42.42;99904.94;5053535;28;45787;-73
2022/01/04 08:39:41;;;;;;;;;0.00;0.00;;;;;22.25;42.73;99863.81;5041034;28;45583;-73
2022/01/04 08:42:06;;;;;;;;;0.00;0.00;;;;;22.34;42.77;99870.50;5041803;28;45932;-73
2022/01/04 08:44:33;;;;;;;;;0.00;0.00;;;;;22.48;42.71;99887.19;5044829;28;45307;-73
2022/01/04 08:46:58;;;;;;;;;0.00;0.00;;;;;22.49;42.39;99893.31;5045393;28;45399;-73
2022/01/04 08:49:24;;;;;;;;;0.00;0.00;;;;;22.47;42.93;99890.06;5053592;28;45355;-73
2022/01/04 08:51:49;;;;;;;;;2.00;1.00;;;;;22.43;42.30;99889.66;5052620;28;46109;-73
2022/01/04 08:54:15;;;;;;;;;0.00;0.00;;;;;22.48;42.88;99894.34;5038475;28;45393;-73
2022/01/04 08:56:41;;;;;;;;;1.00;0.00;;;;;22.49;42.80;99898.59;5041182;28;46557;-73
2022/01/04 08:59:08;;;;;;;;;0.00;0.00;;;;;22.50;42.38;99895.78;5040271;28;45430;-73
2022/01/04 09:01:34;;;;;;;;;0.25;0.00;;;;;22.49;42.39;99890.66;5048833;28;47168;-73
2022/01/04 09:04:01;;;;;;;;;0.00;0.00;;;;;22.49;42.80;99888.81;5037765;28;45234;-72
2022/01/04 09:06:27;;;;;;;;;0.00;0.00;;;;;22.50;42.48;99894.94;5052995;28;45358;-73
2022/01/04 09:08:55;;;;;;;;;0.00;0.00;;;;;22.49;42.73;99899.44;5049243;28;45797;-73
2022/01/04 09:11:21;;;;;;;;;0.00;0.00;;;;;22.49;42.31;99882.72;5046634;28;45481;-72
2022/01/04 09:13:48;;;;;;;;;0.00;0.00;;;;;22.49;42.73;99872.94;5040011;28;45555;-73
2022/01/04 09:18:57;;;;;;;;;0.00;0.00;;;;;22.47;42.86;99871.50;5035899;28;45217;-73
2022/01/04 09:21:25;;;;;;;;;0.00;0.00;;;;;22.45;42.66;99869.06;5053457;28;46143;-73
2022/01/04 09:23:53;;;;;;;;;0.00;0.00;;;;;22.37;42.52;99856.84;5050480;28;45464;-73
2022/01/04 09:26:19;;;;;;;;;0.00;0.00;;;;;22.43;42.72;99865.00;5049092;28;45763;-73
2022/01/04 09:28:45;;;;;;;;;0.00;0.00;;;;;22.47;42.41;99877.63;5049838;28;45525;-73
2022/01/04 09:31:11;;;;;;;;;1.00;0.00;;;;;22.32;42.75;99846.06;5052178;28;47273;-73
2022/01/04 09:33:38;;;;;;;;;0.00;0.00;;;;;22.48;42.59;99870.50;5039849;28;45425;-73
2022/01/04 09:36:04;;;;;;;;;1.00;1.00;;;;;22.39;42.62;99859.28;5045615;28;45444;-73
2022/01/04 09:38:30;;;;;;;;;0.00;0.00;;;;;22.47;42.36;99887.41;5047521;28;45505;-73
2022/01/04 09:40:55;;;;;;;;;0.00;0.00;;;;;22.47;42.61;99892.72;5043131;28;45636;-73
2022/01/04 09:43:22;;;;;;;;;0.00;0.00;;;;;22.39;42.66;99888.44;5038382;28;46128;-73
2022/01/04 09:45:48;;;;;;;;;0.75;0.75;;;;;22.47;42.44;99909.44;5051472;28;45501;-72
2022/01/04 09:48:14;;;;;;;;;0.00;0.00;;;;;22.42;42.42;99903.94;5045294;28;45460;-73
2022/01/04 09:50:41;;;;;;;;;0.25;0.00;;;;;22.46;42.37;99906.97;5044933;28;46093;-73
2022/01/04 09:53:08;;;;;;;;;0.00;0.00;;;;;22.46;42.29;99914.91;5039598;28;45572;-73
2022/01/04 09:55:35;;;;;;;;;0.00;0.00;;;;;22.40;42.56;99916.59;5037399;28;45453;-73
2022/01/04 09:58:01;;;;;;;;;0.75;0.75;;;;;22.46;42.24;99922.88;5035219;28;45496;-73
2022/01/04 10:00:26;;;;;;;;;0.00;0.00;;;;;22.46;42.51;99921.03;5043258;28;46068;-73
2022/01/04 10:03:07;;;;;;;;;0.00;0.00;;;;;22.45;42.62;99927.38;5050830;28;45561;-73
2022/01/04 10:05:32;;;;;;;;;0.00;0.00;;;;;22.46;42.68;99930.81;5046597;28;46261;-73
2022/01/04 10:08:03;;;;;;;;;0.00;0.00;;;;;22.43;42.36;99932.03;5040262;28;45451;-73
2022/01/04 10:10:29;;;;;;;;;0.75;0.00;;;;;22.45;42.64;99937.97;5021559;28;46198;-73
2022/01/04 10:13:01;;;;;;;;;0.00;0.00;;;;;22.45;42.58;99953.88;5038093;28;45458;-72
2022/01/04 10:15:43;;;;;;;;;0.00;0.00;;;;;22.46;42.22;99959.97;5050160;28;45501;-73
2022/01/04 10:18:16;;;;;;;;;0.00;0.00;;;;;22.46;42.57;99965.28;5048030;28;45414;-73
2022/01/04 10:20:44;;;;;;;;;0.00;0.00;;;;;22.19;42.13;99926.38;5049004;28;46202;-72
2022/01/04 10:23:11;;;;;;;;;1.50;0.00;;;;;22.39;42.59;99952.03;5049684;28;45464;-73
2022/01/04 10:25:38;;;;;;;;;0.75;0.75;;;;;22.44;42.15;99957.53;5041818;28;45509;-73
2022/01/04 10:28:04;;;;;;;;;0.00;0.00;;;;;22.45;42.64;99967.13;5055006;28;45343;-73
2022/01/04 10:30:34;;;;;;;;;0.00;0.00;;;;;22.39;42.06;99952.03;5039853;28;47124;-73
2022/01/04 10:33:14;;;;;;;;;0.67;0.00;;;;;22.47;42.15;99961.63;5041844;28;45995;-73
2022/01/04 10:35:53;;;;;;;;;0.00;0.00;;;;;22.47;42.47;99953.66;5049686;28;45437;-73
2022/01/04 10:38:32;;;;;;;;;0.00;0.00;;;;;22.47;42.19;99943.06;5050990;28;45551;-73
2022/01/04 10:41:15;;;;;;;;;1.00;1.00;;;;;22.46;42.24;99949.38;5050019;28;46953;-73
2022/01/04 10:43:43;;;;;;;;;0.25;0.00;;;;;22.47;42.52;99935.13;5046830;28;45722;-73
2022/01/04 10:46:11;;;;;;;;;1.75;0.00;;;;;22.47;42.67;99924.50;5056859;28;45557;-73
2022/01/04 10:48:44;;;;;;;;;1.00;1.00;;;;;22.47;42.09;99914.72;5044220;28;45584;-72
2022/01/04 10:51:15;;;;;;;;;0.00;0.00;;;;;22.45;42.64;99906.19;5043231;28;45422;-73
2022/01/04 10:53:51;;;;;;;;;0.00;0.00;;;;;22.46;42.64;99904.31;5044886;28;45607;-73
2022/01/04 10:56:34;;;;;;;;;0.00;0.00;;;;;22.45;42.21;99892.94;5043373;28;45519;-73
2022/01/04 10:59:03;;;;;;;;;0.00;0.00;;;;;22.46;42.06;99889.25;5051472;28;45521;-73
2022/01/04 11:01:37;;;;;;;;;0.25;0.25;;;;;22.47;41.93;99898.00;5054065;28;47420;-73
2022/01/04 11:04:03;;;;;;;;;0.25;0.25;;;;;22.41;42.49;99899.63;5039430;28;45410;-73
2022/01/04 11:06:36;;;;;;;;;0.25;0.25;;;;;22.46;42.40;99906.97;5042478;28;45489;-73
2022/01/04 11:09:04;;;;;;;;;0.00;0.00;;;;;22.46;42.36;99915.75;5049341;28;45445;-73
2022/01/04 11:11:29;;;;;;;;;1.00;1.00;;;;;22.44;42.48;99912.50;5051333;28;46014;-72
2022/01/04 11:13:54;;;;;;;;;1.00;1.00;;;;;22.36;42.45;99896.78;5050790;28;45386;-72
2022/01/04 11:16:26;;;;;;;;;0.00;0.00;;;;;22.45;42.44;99905.34;5054888;28;45721;-73
2022/01/04 11:18:54;;;;;;;;;0.25;0.25;;;;;22.45;42.52;99903.53;5057600;28;45401;-73
2022/01/04 11:21:24;;;;;;;;;1.25;0.00;;;;;22.46;42.59;99899.00;5049920;28;46198;-73
2022/01/04 11:23:52;;;;;;;;;0.00;0.00;;;;;22.45;42.61;99910.66;5051003;28;46241;-73
2022/01/04 11:26:19;;;;;;;;;0.00;0.00;;;;;22.44;42.51;99899.22;5032607;28;45499;-73
2022/01/04 11:28:50;;;;;;;;;0.00;0.00;;;;;22.44;42.40;99890.47;5052690;28;45456;-73
2022/01/04 11:31:44;;;;;;;;;0.00;0.00;;;;;22.44;41.97;99882.50;5036918;28;46170;-73
2022/01/04 11:34:15;;;;;;;;;1.00;1.00;;;;;22.44;42.06;99885.97;5055987;28;45351;-73
2022/01/04 11:36:43;;;;;;;;;1.00;0.25;;;;;22.40;42.67;99888.22;5060463;28;45278;-73